Data for 04/09/2009

Time Sea-Level Adjusted Pressure Absolute Pressure Temperature Relative Humidity Dew Point   
(mb) (inHg) (mb) (inHg) (C) (F) (%) (C) (F)
00:05 1006 29.71 835 24.66 3.4 38 94 2.4 36.4
00:10 1006 29.71 835 24.66 3.3 38 94 2.4 36.3
00:15 1006 29.71 835 24.66 3.3 37.9 94 2.3 36.2
00:20 1006 29.71 835 24.66 3.2 37.8 94 2.3 36.1
00:25 1006 29.71 835 24.66 3.2 37.7 93 2.2 35.9
00:30 1006 29.71 835 24.66 3.2 37.7 93 2.2 36
00:35 1006 29.71 835 24.66 3.1 37.7 93 2.2 35.9
00:40 1006 29.71 835 24.66 3.1 37.7 94 2.2 36
00:45 1006 29.71 835 24.66 3.1 37.6 94 2.2 35.9
00:50 1006 29.71 835 24.66 3.1 37.5 94 2.2 36
00:55 1006 29.71 835 24.66 3.1 37.5 95 2.3 36.1
01:00 1006 29.71 835 24.66 3.1 37.6 94 2.3 36.1
01:05 1006 29.71 835 24.66 3.1 37.6 94 2.3 36.1
01:10 1006 29.71 835 24.66 3.1 37.5 94 2.2 36
01:15 1006 29.71 836 24.69 3.1 37.5 94 2.2 35.9
01:20 1006 29.71 836 24.69 3 37.4 94 2.2 35.9
01:25 1006 29.71 836 24.69 2.9 37.2 94 2.1 35.7
01:30 1006 29.71 836 24.69 2.9 37.3 94 2.1 35.7
01:35 1006 29.71 836 24.69 2.9 37.3 94 2.1 35.7
01:40 1006 29.71 836 24.69 2.9 37.3 94 2.1 35.8
01:45 1006 29.71 836 24.69 2.9 37.2 94 2.1 35.8
01:50 1006 29.71 836 24.69 2.9 37.2 95 2.1 35.8
01:55 1006 29.71 836 24.69 2.9 37.2 95 2.1 35.7
02:00 1006 29.71 836 24.69 2.9 37.1 95 2.1 35.7
02:05 1006 29.71 836 24.69 2.9 37.2 95 2.1 35.7
02:10 1006 29.71 836 24.69 2.9 37.2 94 2 35.6
02:15 1006 29.71 836 24.69 3 37.4 93 2 35.7
02:20 1006 29.71 836 24.69 3.1 37.5 93 2 35.6
02:25 1006 29.71 836 24.69 3.1 37.6 93 2 35.7
02:30 1006 29.71 836 24.69 3.1 37.6 93 2 35.6
02:35 1006 29.71 836 24.69 3.2 37.7 92 2 35.7
02:40 1006 29.71 836 24.69 3.2 37.8 93 2.2 36
02:45 1006 29.71 836 24.69 3.2 37.8 92 2.1 35.8
02:50 1006 29.71 836 24.69 3.2 37.7 93 2.2 35.9
02:55 1006 29.71 836 24.69 3.1 37.6 93 2.1 35.8
03:00 1006 29.71 836 24.69 3.1 37.6 93 2.2 35.9
03:05 1006 29.71 836 24.69 3.1 37.5 93 2.1 35.8
03:10 1006 29.71 836 24.69 3 37.4 94 2.1 35.9
03:15 1007 29.74 836 24.69 3 37.3 94 2.1 35.8
03:20 1007 29.74 836 24.69 3 37.4 95 2.3 36.1
03:25 1007 29.74 836 24.69 3 37.4 96 2.3 36.2
03:30 1007 29.74 836 24.69 3 37.4 96 2.4 36.2
03:35 1007 29.74 836 24.69 3 37.4 95 2.3 36.2
03:40 1007 29.74 836 24.69 3 37.4 95 2.3 36.1
03:45 1007 29.74 836 24.69 3.1 37.5 95 2.4 36.3
03:50 1007 29.74 836 24.69 3.4 38 94 2.5 36.6
03:55 1007 29.74 836 24.69 3.5 38.4 94 2.6 36.8
04:00 1007 29.74 836 24.69 3.5 38.3 94 2.6 36.7
04:05 1007 29.74 836 24.69 3.5 38.3 94 2.6 36.7
04:10 1007 29.74 836 24.69 3.4 38.2 94 2.6 36.7
04:15 1007 29.74 836 24.69 3.3 38 94 2.5 36.4
04:20 1007 29.74 836 24.69 3.2 37.8 94 2.4 36.3
04:25 1007 29.74 836 24.69 3.1 37.6 95 2.4 36.3
04:30 1007 29.74 836 24.69 3.1 37.6 94 2.3 36.1
04:35 1007 29.74 836 24.69 3 37.5 94 2.2 36
04:40 1007 29.74 836 24.69 2.9 37.2 95 2.1 35.9
04:45 1007 29.74 836 24.69 2.7 36.9 95 2 35.7
04:50 1007 29.74 836 24.69 2.7 36.8 95 1.9 35.5
04:55 1007 29.74 836 24.69 2.6 36.7 95 1.9 35.4
05:00 1007 29.74 836 24.69 2.6 36.7 95 1.8 35.3
05:05 1007 29.74 836 24.69 2.6 36.7 94 1.8 35.2
05:10 1007 29.74 836 24.69 2.7 36.8 93 1.7 35.1
05:15 1007 29.74 836 24.69 2.7 36.9 93 1.8 35.2
05:20 1007 29.74 836 24.69 2.6 36.6 94 1.7 35.1
05:25 1007 29.74 836 24.69 2.4 36.4 94 1.6 34.9
05:30 1007 29.74 836 24.69 2.4 36.4 94 1.5 34.8
05:35 1007 29.74 836 24.69 2.4 36.4 94 1.5 34.7
05:40 1007 29.74 837 24.72 2.6 36.7 92 1.5 34.6
05:45 1007 29.74 837 24.72 2.8 37 92 1.6 34.8
05:50 1007 29.74 837 24.72 2.7 36.8 92 1.5 34.7
05:55 1007 29.74 837 24.72 2.5 36.5 93 1.5 34.7
06:00 1007 29.74 837 24.72 2.4 36.3 94 1.5 34.6
06:05 1008 29.77 837 24.72 2.4 36.3 94 1.5 34.7
06:10 1008 29.77 837 24.72 2.4 36.3 94 1.5 34.6
06:15 1008 29.77 837 24.72 2.4 36.3 94 1.4 34.6
06:20 1008 29.77 837 24.72 2.4 36.3 93 1.4 34.5
06:25 1008 29.77 837 24.72 2.4 36.3 93 1.4 34.5
06:30 1008 29.77 837 24.72 2.5 36.4 93 1.5 34.6
06:35 1008 29.77 837 24.72 2.5 36.4 93 1.5 34.6
06:40 1008 29.77 837 24.72 2.5 36.4 93 1.5 34.6
06:45 1008 29.77 837 24.72 2.5 36.4 93 1.4 34.5
06:50 1008 29.77 837 24.72 2.5 36.4 92 1.3 34.4
06:55 1008 29.77 837 24.72 2.4 36.4 92 1.3 34.4
07:00 1008 29.77 837 24.72 2.3 36.2 93 1.2 34.2
07:05 1008 29.77 837 24.72 2.3 36.2 93 1.2 34.2
07:10 1008 29.77 837 24.72 2.3 36.1 93 1.2 34.2
07:15 1008 29.77 837 24.72 2.4 36.2 92 1.2 34.2
07:20 1008 29.77 837 24.72 2.4 36.4 92 1.3 34.3
07:25 1008 29.77 837 24.72 2.6 36.6 92 1.4 34.5
07:30 1008 29.77 837 24.72 2.5 36.6 92 1.4 34.5
07:35 1008 29.77 837 24.72 2.5 36.4 92 1.3 34.3
07:40 1008 29.77 837 24.72 2.4 36.4 91 1.2 34.1
07:45 1008 29.77 837 24.72 2.6 36.6 91 1.2 34.2
07:50 1008 29.77 838 24.75 2.8 37 89 1.1 34
07:55 1008 29.77 838 24.75 3 37.3 88 1.2 34.2
08:00 1008 29.77 838 24.75 3.1 37.6 88 1.3 34.4
08:05 1008 29.77 838 24.75 3 37.4 89 1.4 34.4
08:10 1008 29.77 838 24.75 2.9 37.2 89 1.2 34.2
08:15 1009 29.8 838 24.75 2.9 37.3 89 1.3 34.3
08:20 1009 29.8 838 24.75 2.9 37.3 89 1.4 34.5
08:25 1009 29.8 838 24.75 3 37.4 89 1.4 34.5
08:30 1009 29.8 838 24.75 3 37.3 90 1.5 34.6
08:35 1009 29.8 838 24.75 3 37.4 90 1.5 34.8
08:40 1009 29.8 838 24.75 3 37.4 90 1.5 34.7
08:45 1009 29.8 838 24.75 3 37.4 91 1.7 35
08:50 1009 29.8 838 24.75 3 37.4 91 1.6 34.9
08:55 1009 29.8 838 24.75 2.9 37.2 91 1.6 34.8
09:00 1009 29.8 838 24.75 2.9 37.2 91 1.6 34.9
09:05 1009 29.8 838 24.75 2.9 37.2 91 1.6 34.9
09:10 1009 29.8 838 24.75 2.9 37.2 91 1.6 34.9
09:15 1009 29.8 838 24.75 2.9 37.1 92 1.6 35
09:20 1009 29.8 838 24.75 2.9 37.2 92 1.7 35
09:25 1009 29.8 838 24.75 2.9 37.2 91 1.5 34.8
09:30 1009 29.8 838 24.75 2.8 37.1 92 1.6 34.9
09:35 1009 29.8 838 24.75 2.9 37.2 91 1.5 34.8
09:40 1009 29.8 838 24.75 2.9 37.3 92 1.7 35
09:45 1009 29.8 838 24.75 3 37.4 91 1.6 34.9
09:50 1009 29.8 839 24.78 3 37.4 90 1.6 34.9
09:55 1009 29.8 839 24.78 3.1 37.5 91 1.8 35.2
10:00 1009 29.8 839 24.78 3.1 37.6 90 1.7 35
10:05 1009 29.8 839 24.78 3.1 37.5 91 1.7 35.1
10:10 1009 29.8 839 24.78 3.1 37.5 91 1.8 35.3
10:15 1010 29.83 839 24.78 3.1 37.6 92 1.9 35.4
10:20 1010 29.83 839 24.78 3.2 37.7 92 2 35.5
10:25 1010 29.83 839 24.78 3.2 37.7 92 2 35.6
10:30 1010 29.83 839 24.78 3.2 37.7 93 2.1 35.7
10:35 1010 29.83 839 24.78 3.2 37.8 93 2.2 35.9
10:40 1010 29.83 839 24.78 3.3 37.9 93 2.3 36.2
10:45 1010 29.83 839 24.78 3.4 38.1 92 2.3 36.1
10:50 1010 29.83 839 24.78 3.3 38 92 2.2 36
10:55 1010 29.83 839 24.78 3.4 38.2 92 2.2 36
11:00 1010 29.83 839 24.78 3.5 38.3 91 2.2 36
11:05 1010 29.83 839 24.78 3.4 38.1 92 2.2 36
11:10 1010 29.83 839 24.78 3.4 38.1 92 2.3 36.1
11:15 1010 29.83 839 24.78 3.4 38.2 92 2.3 36.1
11:20 1010 29.83 839 24.78 3.5 38.3 92 2.4 36.3
11:25 1010 29.83 840 24.81 3.7 38.6 91 2.3 36.1
11:30 1010 29.83 840 24.81 3.7 38.7 92 2.5 36.5
11:35 1010 29.83 840 24.81 3.8 38.8 92 2.6 36.6
11:40 1010 29.83 840 24.81 3.8 38.8 91 2.5 36.5
11:45 1010 29.83 840 24.81 3.8 38.8 91 2.5 36.5
11:50 1010 29.83 840 24.81 3.9 38.9 91 2.5 36.5
11:55 1011 29.85 840 24.81 3.8 38.9 92 2.6 36.6
12:00 1011 29.85 840 24.81 3.9 39.1 89 2.4 36.2
12:05 1011 29.85 840 24.81 4.1 39.4 90 2.6 36.7
12:10 1011 29.85 840 24.81 4.1 39.5 90 2.6 36.7
12:15 1011 29.85 840 24.81 4.2 39.5 89 2.5 36.5
12:20 1011 29.85 840 24.81 4.2 39.5 89 2.6 36.7
12:25 1011 29.85 840 24.81 4.3 39.7 89 2.7 36.8
12:30 1011 29.85 840 24.81 4.3 39.7 90 2.8 37
12:35 1011 29.85 840 24.81 4.4 40 90 2.9 37.2
12:40 1011 29.85 840 24.81 4.7 40.4 90 3.2 37.8
12:45 1011 29.85 840 24.81 5 40.9 87 2.9 37.3
12:50 1011 29.85 840 24.81 4.8 40.7 88 2.9 37.3
12:55 1011 29.85 840 24.81 5 41 86 2.9 37.2
13:00 1011 29.85 840 24.81 5 40.9 87 3 37.5
13:05 1011 29.85 840 24.81 5.2 41.4 85 2.9 37.2
13:10 1011 29.85 840 24.81 5.5 42 83 2.9 37.2
13:15 1011 29.85 840 24.81 5.7 42.2 85 3.3 38
13:20 1011 29.85 840 24.81 5.7 42.3 86 3.6 38.6
13:25 1011 29.85 840 24.81 5.8 42.4 82 3 37.4
13:30 1011 29.85 840 24.81 5.8 42.5 85 3.4 38.1
13:35 1011 29.85 840 24.81 6 42.7 81 3 37.3
13:40 1011 29.85 840 24.81 6.1 42.9 84 3.6 38.5
13:45 1011 29.85 840 24.81 6.2 43.2 83 3.5 38.3
13:50 1011 29.85 840 24.81 6.4 43.4 81 3.3 37.9
13:55 1011 29.85 840 24.81 6.7 44 78 3.1 37.5
14:00 1011 29.85 840 24.81 6.3 43.3 81 3.3 37.9
14:05 1011 29.85 840 24.81 6.6 43.9 79 3.3 37.9
14:10 1011 29.85 840 24.81 6.5 43.8 80 3.3 38
14:15 1011 29.85 840 24.81 6.2 43.1 81 3.2 37.7
14:20 1011 29.85 840 24.81 6.2 43.2 80 3 37.4
14:25 1011 29.85 840 24.81 6.4 43.5 74 2.2 35.9
14:30 1011 29.85 840 24.81 6.2 43.2 77 2.6 36.6
14:35 1011 29.85 840 24.81 6.6 43.9 75 2.5 36.5
14:40 1011 29.85 840 24.81 6.5 43.7 76 2.5 36.5
14:45 1011 29.85 840 24.81 6.4 43.6 76 2.4 36.4
14:50 1011 29.85 840 24.81 6.3 43.3 75 2.1 35.7
14:55 1011 29.85 840 24.81 6.1 42.9 77 2.4 36.2
15:00 1011 29.85 840 24.81 5.5 41.9 79 2.1 35.7
15:05 1011 29.85 840 24.81 5.8 42.4 76 1.9 35.5
15:10 1011 29.85 840 24.81 5.5 41.9 79 2.2 36
15:15 1011 29.85 840 24.81 5.7 42.2 80 2.6 36.6
15:20 1011 29.85 840 24.81 5.6 42.1 80 2.5 36.5
15:25 1011 29.85 840 24.81 5.6 42.1 79 2.3 36.1
15:30 1011 29.85 840 24.81 5.9 42.6 81 2.8 37.1
15:35 1011 29.85 840 24.81 5.6 42.1 82 2.8 37.1
15:40 1011 29.85 840 24.81 5.8 42.4 85 3.4 38.1
15:45 1011 29.85 840 24.81 6 42.9 81 3.1 37.6
15:50 1011 29.85 840 24.81 5.9 42.6 84 3.4 38.2
15:55 1011 29.85 840 24.81 5.9 42.7 81 2.9 37.2
16:00 1011 29.85 840 24.81 5.9 42.6 77 2.2 36
16:05 1011 29.85 840 24.81 5.8 42.5 78 2.4 36.3
16:10 1011 29.85 840 24.81 5.5 41.9 85 3.2 37.7
16:15 1011 29.85 840 24.81 5.1 41.3 86 3 37.3
16:20 1011 29.85 840 24.81 4.9 40.9 87 3 37.3
16:25 1011 29.85 840 24.81 4.8 40.6 89 3.1 37.6
16:30 1011 29.85 840 24.81 4.7 40.5 90 3.2 37.8
16:35 1011 29.85 840 24.81 4.5 40.2 90 3.1 37.6
16:40 1011 29.85 840 24.81 4.5 40.1 90 3 37.4
16:45 1011 29.85 840 24.81 4.4 40 89 2.8 37.1
16:50 1011 29.85 840 24.81 4.2 39.5 90 2.7 36.9
16:55 1011 29.85 840 24.81 4.1 39.3 89 2.5 36.5
17:00 1011 29.85 840 24.81 4.1 39.3 91 2.7 36.8
17:05 1011 29.85 840 24.81 4.1 39.3 92 2.8 37.1
17:10 1011 29.85 840 24.81 4.1 39.3 93 3 37.3
17:15 1011 29.85 840 24.81 4.2 39.6 92 3 37.4
17:20 1011 29.85 840 24.81 4.3 39.7 91 2.9 37.3
17:25 1011 29.85 840 24.81 4.4 39.9 91 3 37.4
17:30 1011 29.85 840 24.81 4.7 40.4 90 3.2 37.7
17:35 1011 29.85 840 24.81 4.8 40.6 90 3.3 38
17:40 1011 29.85 840 24.81 4.9 40.9 89 3.3 38
17:45 1011 29.85 840 24.81 5.1 41.2 90 3.5 38.4
17:50 1011 29.85 841 24.83 5.3 41.5 91 3.9 39
17:55 1011 29.85 841 24.83 5.3 41.6 90 3.8 38.8
18:00 1011 29.85 841 24.83 5.3 41.5 91 3.8 38.9
18:05 1011 29.85 841 24.83 5.2 41.4 89 3.5 38.3
18:10 1011 29.85 841 24.83 5.1 41.2 90 3.5 38.4
18:15 1011 29.85 841 24.83 5.1 41.2 91 3.7 38.7
18:20 1011 29.85 841 24.83 5.3 41.5 90 3.7 38.7
18:25 1011 29.85 841 24.83 5.3 41.6 88 3.5 38.3
18:30 1011 29.85 841 24.83 5.3 41.6 90 3.8 38.8
18:35 1011 29.85 841 24.83 5.5 41.8 86 3.3 38
18:40 1011 29.85 841 24.83 5.3 41.6 89 3.6 38.5
18:45 1011 29.85 841 24.83 5.2 41.4 90 3.7 38.7
18:50 1011 29.85 841 24.83 5.1 41.1 92 3.8 38.9
18:55 1012 29.88 841 24.83 4.8 40.7 90 3.3 37.9
19:00 1012 29.88 841 24.83 4.9 40.9 89 3.3 37.9
19:05 1012 29.88 841 24.83 5.1 41.1 88 3.3 38
19:10 1012 29.88 841 24.83 5.1 41.2 86 2.9 37.3
19:15 1012 29.88 841 24.83 5.2 41.3 86 3 37.4
19:20 1012 29.88 841 24.83 5 40.9 89 3.2 37.8
19:25 1011 29.85 841 24.83 4.8 40.7 86 2.6 36.7
19:30 1011 29.85 841 24.83 4.7 40.5 86 2.5 36.6
19:35 1011 29.85 841 24.83 4.6 40.3 85 2.4 36.3
19:40 1012 29.88 841 24.83 4.4 39.8 89 2.7 36.8
19:45 1012 29.88 841 24.83 4.3 39.7 90 2.8 37.1
19:50 1012 29.88 841 24.83 4.3 39.7 88 2.5 36.6
19:55 1012 29.88 841 24.83 4.3 39.7 89 2.5 36.6
20:00 1012 29.88 841 24.83 4.3 39.7 88 2.4 36.4
20:05 1012 29.88 841 24.83 4.2 39.6 89 2.5 36.5
20:10 1012 29.88 841 24.83 4.2 39.6 88 2.5 36.5
20:15 1012 29.88 841 24.83 4.1 39.4 87 2.2 36
20:20 1012 29.88 841 24.83 4.2 39.5 88 2.4 36.4
20:25 1012 29.88 841 24.83 4.2 39.6 88 2.4 36.3
20:30 1012 29.88 841 24.83 4.2 39.6 87 2.3 36.1
20:35 1012 29.88 841 24.83 4.3 39.7 85 2 35.6
20:40 1012 29.88 841 24.83 4.3 39.7 86 2.1 35.9
20:45 1012 29.88 841 24.83 4.2 39.6 86 2.2 35.9
20:50 1012 29.88 841 24.83 4.1 39.3 87 2.1 35.7
20:55 1012 29.88 841 24.83 4 39.3 86 1.8 35.3
21:00 1012 29.88 841 24.83 4.1 39.5 86 1.9 35.5
21:05 1012 29.88 841 24.83 4.1 39.3 88 2.3 36.1
21:10 1012 29.88 841 24.83 3.8 38.9 91 2.5 36.5
21:15 1012 29.88 841 24.83 3.5 38.3 91 2.1 35.8
21:20 1012 29.88 841 24.83 3.4 38.1 91 2 35.6
21:25 1012 29.88 841 24.83 3.3 37.9 90 1.8 35.3
21:30 1012 29.88 841 24.83 3.3 37.9 90 1.7 35.1
21:35 1012 29.88 841 24.83 3.4 38 89 1.8 35.2
21:40 1012 29.88 841 24.83 3.5 38.2 89 1.8 35.2
21:45 1012 29.88 841 24.83 3.4 38.2 90 1.9 35.4
21:50 1012 29.88 841 24.83 3.3 38 91 2 35.5
21:55 1012 29.88 841 24.83 3.3 37.9 92 2 35.7
22:00 1012 29.88 841 24.83 3.2 37.8 91 1.8 35.3
22:05 1012 29.88 841 24.83 3.2 37.7 91 1.8 35.3
22:10 1012 29.88 841 24.83 3.2 37.7 91 1.9 35.5
22:15 1012 29.88 841 24.83 3.2 37.8 92 2 35.5
22:20 1012 29.88 841 24.83 3.2 37.7 92 2 35.6
22:25 1012 29.88 841 24.83 3.2 37.8 92 2 35.5
22:30 1012 29.88 841 24.83 3.3 37.9 91 1.9 35.5
22:35 1012 29.88 841 24.83 3.2 37.8 91 2 35.5
22:40 1012 29.88 841 24.83 3.2 37.7 91 1.9 35.5
22:45 1012 29.88 841 24.83 3.2 37.7 91 1.9 35.4
22:50 1012 29.88 841 24.83 3.2 37.8 91 1.9 35.4
22:55 1012 29.88 841 24.83 3.2 37.8 91 1.8 35.3
23:00 1012 29.88 841 24.83 3.4 38.1 90 1.9 35.4
23:05 1012 29.88 841 24.83 3.4 38.1 90 1.9 35.4
23:10 1012 29.88 841 24.83 3.5 38.2 89 1.9 35.4
23:15 1012 29.88 841 24.83 3.5 38.2 89 1.9 35.3
23:20 1012 29.88 841 24.83 3.5 38.2 90 1.9 35.5
23:25 1012 29.88 841 24.83 3.4 38 90 1.9 35.4
23:30 1012 29.88 841 24.83 3.3 38 90 1.8 35.2
23:35 1012 29.88 841 24.83 3.4 38.1 89 1.7 35.1
23:40 1012 29.88 841 24.83 3.5 38.3 89 1.8 35.2
23:45 1012 29.88 841 24.83 3.5 38.3 88 1.8 35.2
23:50 1012 29.88 841 24.83 3.6 38.4 88 1.8 35.2
23:55 1012 29.88 841 24.83 3.6 38.5 88 1.8 35.2
24:00 1012 29.88 841 24.83 3.6 38.4 88 1.8 35.3